Time;durP1;ratioP1;P1;durP2;ratioP2;P2;SDS_P1;SDS_P2;PMS_P1;PMS_P2;Temp;Humidity;BMP_temperature;BMP_pressure;BME280_temperature;BME280_humidity;BME280_pressure;Samples;Min_cycle;Max_cycle;Signal;HPM_P1;HPM_P2
2022/04/09 00:01:01;;;;;;;19.58;5.15;;;;;;;24.03;40.75;101338.38;5053636;28;20426;-61
2022/04/09 00:03:27;;;;;;;19.77;6.10;;;;;;;24.11;40.05;101337.81;5053123;28;20033;-61
2022/04/09 00:05:54;;;;;;;18.73;5.57;;;;;;;23.85;40.54;101335.22;5053898;28;20044;-61
2022/04/09 00:08:20;;;;;;;19.77;5.95;;;;;;;24.20;40.82;101331.41;5053255;28;20071;-61
2022/04/09 00:10:47;;;;;;;22.77;6.38;;;;;;;24.34;40.64;101336.25;5053941;28;20025;-61
2022/04/09 00:13:13;;;;;;;18.95;5.75;;;;;;;23.92;40.21;101332.97;5053231;28;20028;-61
2022/04/09 00:15:40;;;;;;;17.98;5.47;;;;;;;23.79;40.34;101336.34;5053388;28;20029;-61
2022/04/09 00:18:06;;;;;;;17.20;5.38;;;;;;;23.96;41.71;101341.44;5053284;28;20479;-61
2022/04/09 00:20:33;;;;;;;23.75;6.47;;;;;;;23.90;41.96;101334.38;5053038;28;20544;-62
2022/04/09 00:22:59;;;;;;;30.33;7.20;;;;;;;23.97;41.01;101343.06;5052706;28;20029;-61
2022/04/09 00:25:25;;;;;;;18.08;5.82;;;;;;;23.81;42.15;101338.81;5044008;28;20460;-59
2022/04/09 00:27:52;;;;;;;20.05;6.00;;;;;;;23.95;41.89;101331.63;5046673;28;20511;-59
2022/04/09 00:30:19;;;;;;;21.52;6.25;;;;;;;24.00;41.12;101325.31;5052269;28;20389;-59
2022/04/09 00:32:45;;;;;;;22.38;5.63;;;;;;;23.94;40.91;101322.59;5052434;28;20036;-59
2022/04/09 00:35:12;;;;;;;17.88;5.88;;;;;;;23.60;40.41;101317.03;5047253;28;20473;-59
2022/04/09 00:37:45;;;;;;;19.23;5.50;;;;;;;23.38;40.88;101311.97;5050914;28;20491;-59
2022/04/09 00:40:14;;;;;;;20.10;5.38;;;;;;;23.40;42.14;101307.03;5052966;28;20036;-59
2022/04/09 00:42:43;;;;;;;25.35;5.68;;;;;;;23.32;41.54;101296.69;5044810;28;20422;-59
2022/04/09 00:45:11;;;;;;;17.75;5.50;;;;;;;23.49;41.88;101298.25;5054175;28;20017;-58
2022/04/09 00:47:38;;;;;;;19.33;5.25;;;;;;;23.23;41.57;101305.75;5052326;28;20116;-58
2022/04/09 00:50:06;;;;;;;20.40;5.45;;;;;;;22.67;41.85;101299.31;5052485;28;20025;-58
2022/04/09 00:52:38;;;;;;;23.40;6.22;;;;;;;22.31;43.37;101305.88;5052370;28;20040;-58
2022/04/09 00:55:06;;;;;;;24.60;6.32;;;;;;;22.50;42.41;101304.25;5052631;28;20380;-58
2022/04/09 00:57:35;;;;;;;24.50;7.22;;;;;;;22.42;42.73;101301.25;5051703;28;20029;-59
2022/04/09 01:00:12;;;;;;;22.23;6.05;;;;;;;22.22;43.52;101305.63;5051716;28;20052;-58
2022/04/09 01:02:43;;;;;;;24.60;6.13;;;;;;;22.54;42.65;101302.63;5052337;28;20025;-58
2022/04/09 01:05:11;;;;;;;23.58;6.30;;;;;;;22.07;43.08;101306.41;5052357;28;20036;-58
2022/04/09 01:07:38;;;;;;;29.45;7.00;;;;;;;21.63;43.88;101297.06;5052302;28;20029;-58
2022/04/09 01:10:08;;;;;;;27.20;5.63;;;;;;;21.88;44.79;101308.84;5051849;28;20032;-58
2022/04/09 01:12:36;;;;;;;21.38;6.40;;;;;;;21.69;44.03;101302.25;5052022;28;20021;-58
2022/04/09 01:15:07;;;;;;;25.40;5.95;;;;;;;21.77;44.00;101299.03;5052126;28;20029;-58
2022/04/09 01:17:36;;;;;;;20.98;6.68;;;;;;;21.65;44.31;101298.41;5051827;28;20064;-58
2022/04/09 01:20:19;;;;;;;15.32;5.15;;;;;;;21.26;44.58;101296.09;5051868;28;20128;-58
2022/04/09 01:22:45;;;;;;;24.85;6.65;;;;;;;21.51;45.33;101287.22;5051663;28;20028;-57
2022/04/09 01:25:11;;;;;;;25.42;6.47;;;;;;;21.48;44.43;101285.03;5051834;28;20024;-58
2022/04/09 01:27:39;;;;;;;27.10;7.03;;;;;;;21.52;44.95;101294.31;5047412;28;20052;-58
2022/04/09 01:30:05;;;;;;;31.15;7.45;;;;;;;21.24;45.21;101287.38;5050779;28;20036;-58
2022/04/09 01:32:32;;;;;;;29.77;7.45;;;;;;;21.19;44.91;101284.63;5052792;28;20259;-57
2022/04/09 01:35:03;;;;;;;28.80;6.82;;;;;;;20.79;45.27;101274.38;5049195;28;20025;-58
2022/04/09 01:37:29;;;;;;;22.83;7.15;;;;;;;20.33;46.67;101286.81;5047075;28;20373;-58
2022/04/09 01:39:56;;;;;;;26.40;7.28;;;;;;;20.29;46.49;101283.78;5048468;28;20032;-58
2022/04/09 01:42:24;;;;;;;25.98;7.35;;;;;;;20.06;47.56;101276.81;5045881;28;20182;-58
2022/04/09 01:44:50;;;;;;;26.00;6.95;;;;;;;19.89;47.99;101276.13;5033767;28;20104;-58
2022/04/09 01:47:16;;;;;;;32.03;7.65;;;;;;;19.86;48.34;101279.34;5046126;28;20465;-58
2022/04/09 01:49:42;;;;;;;29.48;7.60;;;;;;;19.74;48.29;101276.78;5048876;28;20427;-57
2022/04/09 01:52:08;;;;;;;34.00;7.20;;;;;;;19.81;48.52;101271.13;5052495;28;20384;-58
2022/04/09 01:54:35;;;;;;;31.17;7.80;;;;;;;19.82;47.67;101267.34;5050209;28;21412;-58
2022/04/09 01:57:01;;;;;;;27.70;7.63;;;;;;;19.89;47.68;101271.50;5050105;28;20448;-58
2022/04/09 01:59:27;;;;;;;33.30;7.93;;;;;;;19.66;48.05;101269.94;5054671;28;20034;-57
2022/04/09 02:01:54;;;;;;;30.13;6.60;;;;;;;19.46;48.43;101272.38;5051530;28;20464;-57
2022/04/09 02:04:20;;;;;;;28.80;7.65;;;;;;;19.22;47.37;101267.22;5048189;28;20104;-57
2022/04/09 02:06:48;;;;;;;24.77;7.20;;;;;;;19.41;47.57;101261.47;5050707;28;20040;-57
2022/04/09 02:09:15;;;;;;;25.73;6.25;;;;;;;19.18;47.57;101266.09;5051664;28;20025;-57
2022/04/09 02:11:42;;;;;;;25.30;6.47;;;;;;;19.16;48.04;101264.72;5050910;28;20029;-57
2022/04/09 02:14:10;;;;;;;20.35;5.95;;;;;;;19.19;47.97;101254.16;5051066;28;20096;-57
2022/04/09 02:16:39;;;;;;;25.08;6.75;;;;;;;19.30;47.94;101257.00;5051337;28;20028;-57
2022/04/09 02:19:07;;;;;;;31.25;7.13;;;;;;;19.19;48.10;101247.91;5051194;28;20427;-57
2022/04/09 02:21:33;;;;;;;30.17;6.78;;;;;;;19.23;48.15;101255.28;5051120;28;20025;-57
2022/04/09 02:23:59;;;;;;;28.05;6.68;;;;;;;19.27;48.11;101263.75;5050871;28;20043;-57
2022/04/09 02:26:26;;;;;;;21.08;6.30;;;;;;;19.24;47.76;101254.22;5051064;28;20029;-57
2022/04/09 02:28:52;;;;;;;25.95;6.60;;;;;;;19.39;47.48;101250.06;5051309;28;20025;-58
2022/04/09 02:31:20;;;;;;;21.45;5.47;;;;;;;19.15;48.08;101260.34;5051284;28;20025;-57
2022/04/09 02:33:47;;;;;;;24.92;6.32;;;;;;;19.17;48.30;101261.72;5050534;28;20083;-57
2022/04/09 02:36:14;;;;;;;20.85;6.10;;;;;;;19.07;48.14;101260.78;5050968;28;20136;-58
2022/04/09 02:38:40;;;;;;;22.05;6.13;;;;;;;19.14;47.22;101259.50;5050101;28;20455;-57
2022/04/09 02:41:11;;;;;;;25.70;6.40;;;;;;;19.27;46.95;101263.75;5051319;28;20033;-57
2022/04/09 02:43:38;;;;;;;27.42;6.75;;;;;;;19.09;47.70;101261.34;5050360;28;20055;-57
2022/04/09 02:46:05;;;;;;;21.83;6.60;;;;;;;19.02;47.75;101261.53;5050767;28;20111;-58
2022/04/09 02:48:31;;;;;;;25.73;6.60;;;;;;;19.08;47.58;101270.56;5048445;28;20024;-58
2022/04/09 02:50:57;;;;;;;26.05;5.97;;;;;;;18.94;48.17;101276.38;5032716;28;20362;-58
2022/04/09 02:53:23;;;;;;;22.75;6.07;;;;;;;19.00;48.11;101274.53;5047475;28;20427;-57
2022/04/09 02:55:50;;;;;;;27.60;6.78;;;;;;;19.11;48.31;101275.50;5054492;28;20017;-57
2022/04/09 02:58:16;;;;;;;28.65;6.50;;;;;;;18.85;49.05;101277.88;5054795;28;20021;-57
2022/04/09 03:00:42;;;;;;;22.65;6.80;;;;;;;18.79;49.25;101286.19;5054352;28;20484;-57
2022/04/09 03:03:08;;;;;;;27.08;7.30;;;;;;;18.95;48.40;101294.28;5054453;28;20036;-57
2022/04/09 03:05:35;;;;;;;24.10;7.60;;;;;;;19.01;47.85;101286.22;5054435;28;20484;-57
2022/04/09 03:08:01;;;;;;;21.80;5.80;;;;;;;18.84;47.60;101283.53;5051573;28;20033;-57
2022/04/09 03:10:27;;;;;;;18.52;6.15;;;;;;;18.65;47.78;101291.09;5052977;28;20793;-58
2022/04/09 03:12:53;;;;;;;18.55;5.95;;;;;;;18.56;47.57;101292.59;5054152;28;20116;-57
2022/04/09 03:15:19;;;;;;;25.20;6.43;;;;;;;18.41;47.67;101290.47;5054023;28;20021;-57
2022/04/09 03:17:45;;;;;;;25.65;5.82;;;;;;;18.59;47.60;101289.38;5054488;28;20032;-57
2022/04/09 03:20:12;;;;;;;26.52;6.25;;;;;;;18.50;47.91;101301.72;5054427;28;20063;-57
2022/04/09 03:22:47;;;;;;;21.85;6.35;;;;;;;18.45;48.54;101294.34;5054277;28;20384;-57
2022/04/09 03:25:13;;;;;;;24.85;7.32;;;;;;;18.53;48.15;101301.22;5054255;28;20091;-58
2022/04/09 03:27:39;;;;;;;27.00;6.05;;;;;;;18.16;49.30;101297.13;5053962;28;20032;-57
2022/04/09 03:30:08;;;;;;;24.33;7.43;;;;;;;18.18;49.46;101310.41;5053930;28;20058;-57
2022/04/09 03:32:39;;;;;;;29.67;8.18;;;;;;;18.11;49.81;101316.00;5064576;23;20059;-57
2022/04/09 03:35:07;;;;;;;21.73;6.43;;;;;;;18.06;49.39;101321.31;5074286;28;20049;-57
2022/04/09 03:37:37;;;;;;;35.33;6.75;;;;;;;18.06;48.79;101321.31;5074244;28;20024;-57
2022/04/09 03:40:05;;;;;;;29.55;6.30;;;;;;;18.23;48.48;101329.47;5074183;28;20024;-57
2022/04/09 03:42:32;;;;;;;23.08;6.40;;;;;;;17.98;49.56;101327.13;5072524;28;20081;-57
2022/04/09 03:44:59;;;;;;;19.88;6.78;;;;;;;17.91;49.30;101329.97;5073275;28;20024;-57
2022/04/09 03:47:26;;;;;;;24.20;6.03;;;;;;;17.91;47.64;101329.97;5073316;28;20033;-57
2022/04/09 03:49:52;;;;;;;18.13;5.68;;;;;;;17.87;45.81;101342.34;5073112;28;20028;-57
2022/04/09 03:52:18;;;;;;;21.05;4.90;;;;;;;17.77;44.85;101344.91;5072829;28;20119;-57
2022/04/09 03:54:44;;;;;;;14.00;4.22;;;;;;;17.67;44.38;101350.06;5072948;28;20490;-57
2022/04/09 03:57:11;;;;;;;14.93;4.35;;;;;;;17.50;43.36;101351.91;5073039;28;20472;-57
2022/04/09 03:59:37;;;;;;;15.73;6.10;;;;;;;17.48;43.07;101356.72;5072225;28;20066;-57
2022/04/09 04:02:03;;;;;;;19.77;6.70;;;;;;;17.50;42.96;101366.25;5072858;28;20021;-57
2022/04/09 04:04:30;;;;;;;17.15;4.70;;;;;;;17.60;43.13;101368.31;5058094;28;20689;-57
2022/04/09 04:06:56;;;;;;;14.15;5.03;;;;;;;17.46;43.25;101367.78;5067421;28;20033;-57
2022/04/09 04:09:22;;;;;;;10.82;5.00;;;;;;;17.46;43.39;101378.59;5072873;28;20484;-57
2022/04/09 04:11:49;;;;;;;18.58;4.70;;;;;;;17.51;43.03;101386.00;5072818;28;20056;-57
2022/04/09 04:14:15;;;;;;;14.68;4.72;;;;;;;17.58;43.39;101386.69;5071926;28;20442;-57
2022/04/09 04:16:41;;;;;;;13.82;4.63;;;;;;;17.80;44.56;101393.13;5073511;28;20106;-57
2022/04/09 04:19:08;;;;;;;24.75;5.95;;;;;;;17.47;45.53;101391.06;5072927;28;20017;-57
2022/04/09 04:21:36;;;;;;;20.05;5.47;;;;;;;17.54;46.83;101391.75;5073079;28;20439;-57
2022/04/09 04:24:03;;;;;;;23.73;6.10;;;;;;;17.61;47.62;101397.88;5072787;28;20036;-57
2022/04/09 04:26:29;;;;;;;15.95;5.57;;;;;;;17.30;47.92;101406.41;5073390;28;20337;-57
2022/04/09 04:28:55;;;;;;;31.48;6.72;;;;;;;17.14;48.05;101387.09;5071834;28;20730;-57
2022/04/09 04:31:22;;;;;;;25.92;6.80;;;;;;;17.11;48.66;101386.78;5072739;28;20029;-58
2022/04/09 04:33:48;;;;;;;21.40;6.25;;;;;;;17.36;49.05;101400.03;5071565;28;20082;-57
2022/04/09 04:36:14;;;;;;;30.58;6.68;;;;;;;17.15;49.23;101410.38;5072246;28;20434;-57
2022/04/09 04:38:40;;;;;;;30.40;7.10;;;;;;;16.97;50.13;101407.81;5072702;28;20383;-57
2022/04/09 04:41:07;;;;;;;25.80;6.97;;;;;;;16.92;50.98;101404.97;5072514;28;20040;-57
2022/04/09 04:43:33;;;;;;;25.48;6.40;;;;;;;16.87;51.08;101402.16;5071864;28;20099;-57
2022/04/09 04:46:00;;;;;;;30.65;7.28;;;;;;;16.95;51.97;101401.81;5072360;28;20033;-58
2022/04/09 04:48:26;;;;;;;29.85;8.15;;;;;;;17.03;52.55;101411.47;5072068;28;20052;-57
2022/04/09 04:50:52;;;;;;;26.65;7.57;;;;;;;16.75;52.74;101404.03;5072912;28;20467;-57
2022/04/09 04:53:18;;;;;;;43.67;7.80;;;;;;;16.63;53.23;101394.00;5071001;28;20037;-57
2022/04/09 04:55:44;;;;;;;31.58;7.97;;;;;;;16.47;53.30;101397.38;5072424;28;20020;-58
2022/04/09 04:58:11;;;;;;;30.42;7.18;;;;;;;16.40;53.47;101401.22;5071614;28;20028;-57
2022/04/09 05:00:37;;;;;;;29.80;7.88;;;;;;;16.43;53.40;101398.88;5071675;28;20048;-58
2022/04/09 05:03:03;;;;;;;28.38;7.75;;;;;;;16.39;53.71;101389.59;5069777;28;20388;-57
2022/04/09 05:05:29;;;;;;;36.10;8.35;;;;;;;16.48;53.93;101388.19;5072318;28;20484;-57
2022/04/09 05:07:55;;;;;;;36.35;8.10;;;;;;;16.25;54.39;101396.25;5071658;28;20032;-57
2022/04/09 05:10:24;;;;;;;26.38;7.15;;;;;;;16.14;54.93;101397.03;5072251;28;20066;-57
2022/04/09 05:12:52;;;;;;;30.83;8.18;;;;;;;16.08;55.50;101391.50;5071240;28;20024;-57
2022/04/09 05:15:18;;;;;;;33.10;7.85;;;;;;;16.16;55.78;101393.06;5071375;28;20029;-57
2022/04/09 05:17:45;;;;;;;25.63;7.07;;;;;;;16.03;55.90;101390.53;5071419;28;20024;-57
2022/04/09 05:20:14;;;;;;;24.95;7.63;;;;;;;15.96;56.51;101395.19;5071315;28;20028;-57
2022/04/09 05:22:43;;;;;;;26.10;8.13;;;;;;;16.08;56.52;101402.28;5069478;28;20043;-57
2022/04/09 05:25:13;;;;;;;25.45;7.35;;;;;;;15.96;56.23;101390.63;5060941;28;20082;-57
2022/04/09 05:27:40;;;;;;;28.95;8.18;;;;;;;15.89;56.34;101389.91;5069142;28;20059;-57
2022/04/09 05:30:07;;;;;;;36.42;7.70;;;;;;;16.05;56.17;101389.25;5061090;28;20025;-57
2022/04/09 05:32:35;;;;;;;36.30;8.88;;;;;;;15.95;56.25;101380.06;5051724;28;20044;-57
2022/04/09 05:35:05;;;;;;;33.20;8.93;;;;;;;15.79;56.31;101384.22;5051679;28;20534;-57
2022/04/09 05:37:31;;;;;;;30.48;7.22;;;;;;;15.67;56.82;101388.72;5055898;28;20043;-57
2022/04/09 05:39:58;;;;;;;37.15;8.00;;;;;;;15.64;56.71;101378.38;5054953;28;20375;-57
2022/04/09 05:42:25;;;;;;;38.78;9.65;;;;;;;15.55;57.29;101381.34;5065709;28;20029;-57
2022/04/09 05:44:53;;;;;;;36.75;7.72;;;;;;;15.56;57.07;101380.31;5071570;28;20012;-57
2022/04/09 05:47:19;;;;;;;36.13;8.75;;;;;;;15.72;56.78;101380.78;5070080;28;20070;-57
2022/04/09 05:49:46;;;;;;;33.85;7.82;;;;;;;15.58;57.05;101372.78;5070680;28;20419;-57
2022/04/09 05:52:13;;;;;;;32.35;8.70;;;;;;;15.45;57.44;101372.97;5071577;28;20047;-57
2022/04/09 05:54:39;;;;;;;41.05;8.15;;;;;;;15.71;57.43;101369.16;5053683;28;20029;-57
2022/04/09 05:57:08;;;;;;;33.58;8.32;;;;;;;15.51;57.51;101373.94;5071535;28;20025;-57
2022/04/09 05:59:35;;;;;;;33.50;8.07;;;;;;;15.51;57.54;101376.63;5070727;28;20020;-57
2022/04/09 06:02:01;;;;;;;43.40;10.02;;;;;;;15.49;57.96;101378.72;5068232;28;20392;-57
2022/04/09 06:04:27;;;;;;;39.80;8.82;;;;;;;15.32;58.30;101373.94;5070259;28;20539;-57
2022/04/09 06:06:55;;;;;;;36.47;8.43;;;;;;;15.20;58.57;101386.50;5070574;28;20040;-57
2022/04/09 06:09:21;;;;;;;34.63;8.55;;;;;;;15.15;57.74;101389.03;5071452;28;20036;-57
2022/04/09 06:11:48;;;;;;;28.15;8.23;;;;;;;14.97;58.12;101407.88;5070353;28;20034;-57
2022/04/09 06:14:15;;;;;;;41.50;8.48;;;;;;;14.99;58.08;101401.25;5069928;28;20384;-57
2022/04/09 06:16:43;;;;;;;35.13;7.95;;;;;;;15.00;57.91;101397.50;5071006;28;20043;-57
2022/04/09 06:19:10;;;;;;;36.03;8.27;;;;;;;14.92;58.01;101392.38;5071012;28;20043;-57
2022/04/09 06:21:36;;;;;;;31.42;7.65;;;;;;;14.66;58.96;101396.13;5070226;28;20071;-56
2022/04/09 06:24:03;;;;;;;35.40;8.95;;;;;;;14.47;59.96;101406.00;5071132;28;20025;-56
2022/04/09 06:26:29;;;;;;;32.85;8.13;;;;;;;14.74;58.77;101403.09;5070432;28;20032;-57
2022/04/09 06:28:56;;;;;;;28.15;7.47;;;;;;;14.75;58.90;101393.97;5054141;28;20369;-56
2022/04/09 06:31:22;;;;;;;41.72;9.32;;;;;;;14.75;58.46;101407.44;5069358;28;20043;-57
2022/04/09 06:33:48;;;;;;;30.85;8.02;;;;;;;14.68;58.74;101404.00;5054726;28;20047;-56
2022/04/09 06:36:15;;;;;;;31.77;7.78;;;;;;;14.70;58.71;101415.34;5074195;28;20031;-57
2022/04/09 06:38:41;;;;;;;39.88;8.35;;;;;;;14.75;58.63;101410.97;5073991;28;20079;-56
2022/04/09 06:41:07;;;;;;;35.30;8.05;;;;;;;14.69;58.54;101414.53;5073959;28;20039;-57
2022/04/09 06:43:33;;;;;;;33.50;7.57;;;;;;;14.50;58.60;101420.91;5074325;28;20383;-56
2022/04/09 06:45:59;;;;;;;26.92;7.25;;;;;;;14.68;58.45;101417.47;5075228;28;20024;-56
2022/04/09 06:48:26;;;;;;;33.47;8.75;;;;;;;14.67;58.51;101413.94;5073927;28;20503;-56
2022/04/09 06:50:53;;;;;;;34.47;7.72;;;;;;;14.63;58.22;101403.81;5075090;28;20476;-57
2022/04/09 06:53:19;;;;;;;33.63;9.25;;;;;;;14.56;58.00;101400.34;5073256;28;20024;-57
2022/04/09 06:55:45;;;;;;;37.90;7.53;;;;;;;14.56;57.86;101401.19;5073128;28;20037;-57
2022/04/09 06:58:12;;;;;;;35.40;7.35;;;;;;;14.45;57.92;101391.91;5072781;28;20395;-57
2022/04/09 07:00:38;;;;;;;32.05;7.47;;;;;;;14.34;58.50;101394.47;5073898;28;20103;-57
2022/04/09 07:03:04;;;;;;;39.22;8.10;;;;;;;14.29;58.98;101378.97;5071801;28;20035;-57
2022/04/09 07:05:31;;;;;;;34.05;7.93;;;;;;;14.37;58.28;101372.47;5073690;28;20521;-56
2022/04/09 07:07:57;;;;;;;35.00;7.78;;;;;;;14.19;58.56;101378.59;5073307;28;20081;-57
2022/04/09 07:10:23;;;;;;;29.90;8.23;;;;;;;14.28;58.53;101374.63;5074582;28;20020;-56
2022/04/09 07:12:49;;;;;;;28.67;8.07;;;;;;;14.20;58.51;101375.69;5072992;28;20127;-56
2022/04/09 07:15:15;;;;;;;25.83;8.05;;;;;;;14.21;58.62;101361.22;5073514;28;20445;-56
2022/04/09 07:17:43;;;;;;;41.88;8.73;;;;;;;14.25;57.77;101358.88;5073999;28;20086;-56
2022/04/09 07:20:10;;;;;;;30.33;7.78;;;;;;;13.79;60.62;101375.31;5073493;28;20021;-57
2022/04/09 07:22:38;;;;;;;32.45;7.70;;;;;;;13.95;60.14;101367.56;5072900;28;20044;-56
2022/04/09 07:25:08;;;;;;;29.52;7.38;;;;;;;13.83;60.62;101381.91;5073339;28;20059;-57
2022/04/09 07:27:38;;;;;;;31.27;7.35;;;;;;;14.17;59.71;101381.53;5073215;28;20028;-56
2022/04/09 07:30:06;;;;;;;32.15;7.43;;;;;;;14.06;59.68;101389.47;5073204;28;20024;-56
2022/04/09 07:32:33;;;;;;;33.78;8.70;;;;;;;13.97;60.17;101384.31;5062892;28;20079;-57
2022/04/09 07:35:00;;;;;;;27.00;7.85;;;;;;;13.85;60.49;101387.91;5067166;28;20031;-56
2022/04/09 07:37:26;;;;;;;34.20;8.35;;;;;;;13.88;60.13;101382.06;5073752;28;20030;-56
2022/04/09 07:39:52;;;;;;;31.55;7.60;;;;;;;13.77;60.37;101380.06;5066141;28;20440;-56
2022/04/09 07:42:22;;;;;;;31.23;8.50;;;;;;;13.83;60.47;101390.00;5073331;28;20111;-56
2022/04/09 07:44:49;;;;;;;42.85;8.82;;;;;;;13.88;60.39;101374.84;5074057;28;20016;-56
2022/04/09 07:47:15;;;;;;;42.40;9.07;;;;;;;13.88;60.19;101382.94;5057305;28;20431;-56
2022/04/09 07:49:46;;;;;;;34.03;9.32;;;;;;;13.83;60.69;101385.44;5063351;28;20017;-56
2022/04/09 07:52:13;;;;;;;38.40;8.40;;;;;;;13.85;60.39;101390.59;5054337;28;20033;-56
2022/04/09 07:54:40;;;;;;;35.88;8.88;;;;;;;13.73;60.61;101387.75;5072017;28;20074;-56
2022/04/09 07:57:06;;;;;;;34.25;7.88;;;;;;;13.77;59.67;101394.38;5060825;28;20689;-56
2022/04/09 07:59:32;;;;;;;38.72;9.45;;;;;;;13.63;60.31;101398.94;5055776;28;20393;-56
2022/04/09 08:01:58;;;;;;;35.22;8.13;;;;;;;13.72;60.08;101394.19;5069584;28;20063;-56
2022/04/09 08:04:25;;;;;;;33.47;8.02;;;;;;;13.68;60.48;101401.00;5058942;28;20048;-56
2022/04/09 08:06:51;;;;;;;28.10;7.20;;;;;;;13.58;60.46;101395.25;5053361;28;20025;-55
2022/04/09 08:09:18;;;;;;;38.35;8.68;;;;;;;13.88;60.09;101390.16;5055585;28;20040;-55
2022/04/09 08:11:44;;;;;;;34.92;8.52;;;;;;;13.72;60.19;101397.69;5073646;28;20032;-56
2022/04/09 08:14:10;;;;;;;38.58;8.38;;;;;;;13.59;60.74;101403.09;5072889;28;20025;-55
2022/04/09 08:16:38;;;;;;;38.03;8.63;;;;;;;13.49;60.95;101405.41;5058739;28;20511;-55
2022/04/09 08:19:04;;;;;;;38.90;8.68;;;;;;;13.58;60.32;101400.63;5057149;28;20032;-56
2022/04/09 08:21:30;;;;;;;38.72;8.95;;;;;;;13.22;61.53;101393.91;5061162;28;20036;-56
2022/04/09 08:23:56;;;;;;;29.30;8.35;;;;;;;13.38;60.68;101393.47;5039812;28;20032;-56
2022/04/09 08:26:23;;;;;;;38.38;8.90;;;;;;;13.39;60.62;101395.09;5060649;28;20491;-55
2022/04/09 08:28:49;;;;;;;36.38;9.88;;;;;;;13.35;60.84;101393.03;5060741;28;20028;-56
2022/04/09 08:31:15;;;;;;;36.13;8.40;;;;;;;13.31;61.42;101397.19;5072943;28;20066;-54
2022/04/09 08:33:42;;;;;;;40.15;9.20;;;;;;;13.40;61.17;101407.50;5072778;28;20048;-55
2022/04/09 08:36:09;;;;;;;36.83;9.23;;;;;;;13.40;60.86;101399.44;5073100;28;20033;-54
2022/04/09 08:38:35;;;;;;;34.75;8.65;;;;;;;13.30;61.10;101400.91;5073169;28;20083;-55
2022/04/09 08:41:04;;;;;;;36.33;8.20;;;;;;;13.36;60.12;101402.75;5072807;28;20020;-55
2022/04/09 08:43:31;;;;;;;40.88;8.60;;;;;;;13.40;60.52;101396.75;5072584;28;20064;-56
2022/04/09 08:46:02;;;;;;;34.33;8.88;;;;;;;13.29;60.28;101397.41;5072848;28;20028;-56
2022/04/09 08:48:29;;;;;;;32.20;7.85;;;;;;;13.40;60.13;101404.00;5072394;28;20483;-55
2022/04/09 08:50:56;;;;;;;31.30;8.25;;;;;;;13.32;59.93;101398.81;5071998;28;20031;-54
2022/04/09 08:53:22;;;;;;;43.67;8.75;;;;;;;13.40;59.56;101398.63;5071888;28;20111;-55
2022/04/09 08:55:51;;;;;;;40.45;9.13;;;;;;;13.36;60.28;101390.13;5072671;28;20024;-55
2022/04/09 08:58:17;;;;;;;35.60;9.00;;;;;;;13.21;60.57;101397.59;5072524;28;20028;-56
2022/04/09 09:00:45;;;;;;;44.80;8.35;;;;;;;13.13;60.76;101392.44;5072654;28;20024;-55
2022/04/09 09:03:14;;;;;;;37.72;8.90;;;;;;;13.15;60.58;101387.66;5072050;28;20035;-56
2022/04/09 09:05:52;;;;;;;36.45;7.97;;;;;;;13.10;60.40;101380.25;5072304;28;20095;-54
2022/04/09 09:08:37;;;;;;;47.42;9.07;;;;;;;13.14;60.79;101399.47;5072461;28;20025;-54
2022/04/09 09:11:03;;;;;;;33.75;8.98;;;;;;;12.98;60.72;101386.44;5072174;28;20063;-56
2022/04/09 09:13:29;;;;;;;37.72;8.48;;;;;;;12.96;61.02;101378.59;5072019;28;20025;-55
2022/04/09 09:15:56;;;;;;;35.33;9.30;;;;;;;13.01;60.49;101383.38;5072300;28;20020;-56
2022/04/09 09:18:24;;;;;;;31.65;7.88;;;;;;;13.01;60.16;101375.31;5072126;28;20024;-54
2022/04/09 09:20:59;;;;;;;31.30;8.15;;;;;;;12.99;60.52;101364.75;5072325;28;20031;-54
2022/04/09 09:23:31;;;;;;;44.75;11.32;;;;;;;13.08;60.82;101365.34;5071585;28;20069;-54
2022/04/09 09:26:00;;;;;;;34.92;8.35;;;;;;;12.94;61.04;101365.38;5069162;28;20377;-55
2022/04/09 09:28:30;;;;;;;39.20;8.98;;;;;;;12.92;61.10;101362.06;5070872;28;20035;-55
2022/04/09 09:30:57;;;;;;;35.22;7.82;;;;;;;12.89;61.26;101364.38;5071899;28;20067;-54
2022/04/09 09:33:25;;;;;;;49.92;8.93;;;;;;;13.05;61.20;101360.41;5069942;28;20131;-54
2022/04/09 09:35:52;;;;;;;33.20;7.75;;;;;;;12.52;62.49;101363.94;5071788;28;20495;-54
2022/04/09 09:38:20;;;;;;;29.00;8.25;;;;;;;12.40;61.99;101360.22;5070452;28;20032;-54
2022/04/09 09:40:47;;;;;;;33.38;8.13;;;;;;;12.42;61.50;101369.72;5070968;28;20036;-54
2022/04/09 09:43:15;;;;;;;27.80;7.38;;;;;;;12.49;61.27;101368.91;5071565;28;20383;-54
2022/04/09 09:45:41;;;;;;;29.48;7.47;;;;;;;12.11;62.51;101369.47;5071043;28;20058;-54
2022/04/09 09:48:28;;;;;;;27.67;7.25;;;;;;;11.62;63.56;101373.22;5069579;28;20032;-54
2022/04/09 09:50:59;;;;;;;30.52;7.47;;;;;;;11.94;62.55;101368.16;5071886;28;20329;-54
2022/04/09 09:53:38;;;;;;;30.63;8.05;;;;;;;12.03;62.33;101366.97;5053817;28;20031;-53
2022/04/09 09:56:05;;;;;;;40.55;8.10;;;;;;;12.14;62.09;101358.31;5051394;28;20539;-56
2022/04/09 09:58:32;;;;;;;40.28;8.55;;;;;;;12.14;62.33;101359.16;5062754;28;20472;-53
2022/04/09 10:00:59;;;;;;;30.25;7.40;;;;;;;12.01;63.00;101347.56;5051646;28;20083;-53
2022/04/09 10:03:26;;;;;;;33.05;8.10;;;;;;;12.09;62.13;101340.16;5061088;28;20415;-54
2022/04/09 10:05:53;;;;;;;36.15;7.85;;;;;;;11.12;65.62;101345.75;5071635;28;20487;-54
2022/04/09 10:08:21;;;;;;;31.17;7.10;;;;;;;11.18;64.97;101352.16;5070252;28;20032;-52
2022/04/09 10:10:50;;;;;;;31.88;8.25;;;;;;;11.35;64.17;101348.94;5070041;28;20032;-53
2022/04/09 10:13:23;;;;;;;33.00;7.60;;;;;;;11.62;63.54;101359.78;5062309;28;20476;-53
2022/04/09 10:15:52;;;;;;;33.22;7.78;;;;;;;11.83;62.87;101365.06;5070033;28;20039;-53
2022/04/09 10:18:24;;;;;;;33.47;7.65;;;;;;;11.59;62.96;101357.50;5071525;28;20472;-53
2022/04/09 10:21:00;;;;;;;29.45;7.05;;;;;;;11.68;62.63;101350.94;5068814;28;20056;-54
2022/04/09 10:23:32;;;;;;;26.63;7.20;;;;;;;11.49;63.29;101351.69;5071191;28;20085;-54
2022/04/09 10:26:01;;;;;;;34.40;7.53;;;;;;;11.45;63.33;101361.16;5070441;28;20028;-55
2022/04/09 10:28:32;;;;;;;31.75;7.25;;;;;;;11.18;64.34;101358.34;5071336;28;20060;-54
2022/04/09 10:30:58;;;;;;;29.83;7.45;;;;;;;11.09;64.34;101354.16;5070193;28;20028;-55
2022/04/09 10:33:30;;;;;;;27.05;6.80;;;;;;;10.99;64.92;101359.88;5070735;28;20484;-53
2022/04/09 10:36:02;;;;;;;33.90;8.10;;;;;;;10.94;64.92;101356.09;5070101;28;20194;-54
2022/04/09 10:38:28;;;;;;;28.75;7.40;;;;;;;10.97;64.57;101361.09;5071450;28;20020;-51
2022/04/09 10:40:57;;;;;;;29.83;6.68;;;;;;;11.02;64.60;101358.66;5070431;28;20021;-54
2022/04/09 10:43:24;;;;;;;39.45;8.02;;;;;;;11.17;63.94;101366.59;5071115;28;20055;-53
2022/04/09 10:46:11;;;;;;;25.27;6.70;;;;;;;11.16;63.59;101359.53;5069766;28;20028;-54
2022/04/09 10:48:42;;;;;;;23.42;8.27;;;;;;;11.14;63.82;101365.09;5063213;28;20039;-54
2022/04/09 10:51:11;;;;;;;31.40;7.53;;;;;;;10.91;64.23;101365.38;5071211;28;20024;-54
2022/04/09 10:53:46;;;;;;;31.05;7.05;;;;;;;10.27;66.46;101368.97;5070024;28;20096;-53
2022/04/09 10:56:32;;;;;;;32.70;8.20;;;;;;;10.63;65.10;101369.91;5071188;28;20557;-53
2022/04/09 10:59:13;;;;;;;29.38;6.80;;;;;;;10.30;66.36;101368.56;5069957;28;20033;-53
2022/04/09 11:01:46;;;;;;;25.02;7.05;;;;;;;10.24;66.47;101361.31;5070540;28;20082;-53
2022/04/09 11:04:36;;;;;;;26.33;6.70;;;;;;;10.20;66.90;101369.88;5069884;28;20069;-54
2022/04/09 11:07:07;;;;;;;25.88;7.43;;;;;;;10.23;66.81;101369.50;5071187;28;20111;-53
2022/04/09 11:09:59;;;;;;;25.80;6.45;;;;;;;10.03;67.27;101348.72;5069757;28;20396;-53
2022/04/09 11:12:38;;;;;;;24.30;6.05;;;;;;;10.19;66.90;101342.28;5070459;28;20036;-54
2022/04/09 11:15:07;;;;;;;29.23;6.78;;;;;;;9.73;68.35;101342.63;5071648;28;20028;-53
2022/04/09 11:17:43;;;;;;;30.83;6.40;;;;;;;9.60;68.83;101345.13;5074769;28;20035;-55
2022/04/09 11:20:26;;;;;;;27.40;6.82;;;;;;;9.57;68.98;101366.91;5073576;28;20141;-53